createdAt,value
2018-11-25T00:01:09.952Z,101187.33
2018-11-25T00:03:38.216Z,101189.17
2018-11-25T00:06:06.868Z,101179.77
2018-11-25T00:08:35.158Z,101181.58
2018-11-25T00:11:03.447Z,101176.61
2018-11-25T00:13:31.761Z,101172.63
2018-11-25T00:15:59.998Z,101175.33
2018-11-25T00:18:28.395Z,101169.94
2018-11-25T00:20:56.701Z,101169.44
2018-11-25T00:23:25.331Z,101166.34
2018-11-25T00:25:54.206Z,101160.48
2018-11-25T00:28:22.785Z,101158.72
2018-11-25T00:30:51.389Z,101159.60
2018-11-25T00:33:19.694Z,101154.20
2018-11-25T00:35:48.248Z,101156.02
2018-11-25T00:38:16.561Z,101156.02
2018-11-25T00:40:44.781Z,101155.13
2018-11-25T00:43:12.981Z,101155.59
2018-11-25T00:45:41.208Z,101152.40
2018-11-25T00:48:09.445Z,101151.08
2018-11-25T00:50:38.014Z,101159.64
2018-11-25T00:53:06.764Z,101161.45
2018-11-25T00:55:34.982Z,101153.42
2018-11-25T00:58:03.306Z,101161.05
2018-11-25T01:00:31.893Z,101152.53
2018-11-25T01:03:01.170Z,101157.01
2018-11-25T01:05:29.500Z,101154.31
2018-11-25T01:07:57.726Z,101150.27
2018-11-25T01:10:25.937Z,101155.20
2018-11-25T01:12:54.209Z,101150.66
2018-11-25T01:15:22.436Z,101153.84
2018-11-25T01:17:51.028Z,101160.17
2018-11-25T01:20:19.749Z,101156.02
2018-11-25T01:22:47.974Z,101155.09
2018-11-25T01:25:16.190Z,101155.95
2018-11-25T01:27:44.404Z,101158.61
2018-11-25T01:30:16.341Z,101154.03
2018-11-25T01:32:44.650Z,101155.45
2018-11-25T01:35:13.189Z,101157.27
2018-11-25T01:37:41.544Z,101157.27
2018-11-25T01:40:10.577Z,101157.27
2018-11-25T01:42:39.149Z,101156.84
2018-11-25T01:45:08.325Z,101154.14
2018-11-25T06:53:26.745Z,101144.92
2018-11-25T06:55:54.953Z,101152.73
2018-11-25T06:58:23.229Z,101155.08
2018-11-25T07:00:51.446Z,101147.80
2018-11-25T07:03:19.649Z,101155.86
2018-11-25T07:05:47.965Z,101154.94
2018-11-25T07:08:16.453Z,101157.47
2018-11-25T07:10:44.720Z,101160.48
2018-11-25T07:13:12.930Z,101167.80
2018-11-25T07:15:41.342Z,101168.97
2018-11-25T07:18:09.893Z,101169.20
2018-11-25T07:20:38.118Z,101173.13
2018-11-25T07:23:06.413Z,101175.27
2018-11-25T07:25:34.669Z,101175.69
2018-11-25T07:28:17.922Z,101176.86
2018-11-25T07:30:32.174Z,101173.14
2018-11-25T07:33:00.741Z,101176.66
2018-11-25T07:35:29.164Z,101182.69
2018-11-25T07:37:57.392Z,101178.48
2018-11-25T07:40:25.887Z,101184.89
2018-11-25T07:42:54.363Z,101181.85
2018-11-25T07:45:29.974Z,101187.05
2018-11-25T07:47:52.413Z,101186.64
2018-11-25T07:50:20.622Z,101189.38
2018-11-25T07:52:48.985Z,101195.75
2018-11-25T07:55:17.837Z,101195.95
2018-11-25T07:57:46.467Z,101194.61
2018-11-25T08:00:15.634Z,101203.34
2018-11-25T08:02:43.860Z,101197.33
2018-11-25T08:05:12.621Z,101197.41
2018-11-25T08:07:40.932Z,101197.07
2018-11-25T08:10:12.690Z,101191.61
2018-11-25T08:12:40.968Z,101193.10
2018-11-25T08:15:10.062Z,101195.50
2018-11-25T08:17:38.646Z,101193.56
2018-11-25T08:20:10.643Z,101195.27
2018-11-25T08:22:38.889Z,101198.42
2018-11-25T08:25:08.125Z,101198.20
2018-11-25T08:27:36.412Z,101204.64
2018-11-25T08:30:05.698Z,101206.53
2018-11-25T08:32:33.915Z,101200.70
2018-11-25T08:35:03.392Z,101198.93
2018-11-25T08:37:31.666Z,101193.13
2018-11-25T08:39:59.910Z,101195.14
2018-11-25T08:42:28.390Z,101193.95
2018-11-25T08:44:56.668Z,101190.62
2018-11-25T08:47:25.249Z,101188.12
2018-11-25T08:49:53.550Z,101199.16
2018-11-25T08:52:21.778Z,101189.02
2018-11-25T08:54:50.098Z,101192.66
2018-11-25T08:57:18.815Z,101195.30
2018-11-25T08:59:47.133Z,101199.31
2018-11-25T09:02:15.903Z,101201.42
2018-11-25T09:04:44.101Z,101200.50
2018-11-25T09:07:12.310Z,101201.75
2018-11-25T09:09:40.662Z,101202.19
2018-11-25T09:12:09.230Z,101195.54
2018-11-25T09:14:37.805Z,101202.73
2018-11-25T09:17:07.142Z,101199.61
2018-11-25T09:19:35.366Z,101197.96
2018-11-25T09:22:03.957Z,101203.35
2018-11-25T09:24:32.269Z,101198.45
2018-11-25T09:27:15.686Z,101206.53
2018-11-25T09:29:43.989Z,101200.23
2018-11-25T09:32:49.216Z,101206.44
2018-11-25T09:35:20.712Z,101200.07
2018-11-25T09:37:48.114Z,101205.27
2018-11-25T09:40:24.364Z,101210.64
2018-11-25T09:42:51.456Z,101198.90
2018-11-25T09:45:20.066Z,101199.30
2018-11-25T09:47:48.647Z,101200.58
2018-11-25T09:50:20.800Z,101198.34
2018-11-25T09:52:49.198Z,101197.89
2018-11-25T09:55:18.000Z,101206.89
2018-11-25T09:57:49.945Z,101205.15
2018-11-25T10:00:23.470Z,101203.80
2018-11-25T10:02:48.413Z,101134.95
2018-11-25T10:05:16.739Z,101197.55
2018-11-25T10:07:44.960Z,101194.86
2018-11-25T10:10:13.936Z,101194.03
2018-11-25T10:12:42.150Z,101190.94
2018-11-25T10:15:20.174Z,101193.64
2018-11-25T10:17:49.118Z,101184.70
2018-11-25T10:20:17.858Z,101184.30
2018-11-25T10:22:46.102Z,101180.25
2018-11-25T10:25:14.832Z,101185.22
2018-11-25T10:27:44.009Z,101188.83
2018-11-25T10:30:29.574Z,101177.69
2018-11-25T10:33:05.259Z,101185.31
2018-11-25T10:35:33.461Z,101186.66
2018-11-25T10:38:01.985Z,101180.38
2018-11-25T10:40:32.749Z,101189.36
2018-11-25T10:43:01.304Z,101187.48
2018-11-25T10:45:29.641Z,101187.84
2018-11-25T10:48:09.584Z,101183.71
2018-11-25T10:50:37.989Z,101183.61
2018-11-25T10:53:06.283Z,101188.88
2018-11-25T10:55:34.854Z,101174.45
2018-11-25T10:58:03.192Z,101177.57
2018-11-25T11:00:49.631Z,101175.70
2018-11-25T11:03:35.353Z,101174.34
2018-11-25T11:06:21.158Z,101172.55
2018-11-25T11:08:52.168Z,101168.07
2018-11-25T11:11:20.446Z,101173.46
2018-11-25T11:13:48.712Z,101173.46
2018-11-25T11:16:17.018Z,101173.06
2018-11-25T11:18:45.289Z,101172.64
2018-11-25T11:21:13.576Z,101166.79
2018-11-25T11:23:42.589Z,101164.09
2018-11-25T11:26:27.103Z,101173.09
2018-11-25T11:28:55.429Z,101172.80
2018-11-25T11:31:23.648Z,101165.00
2018-11-25T11:33:52.319Z,101166.11
2018-11-25T11:36:20.832Z,101169.30
2018-11-25T11:38:49.231Z,101168.25
2018-11-25T11:41:18.487Z,101160.53
2018-11-25T11:43:46.971Z,101166.78
2018-11-25T11:46:17.208Z,101169.88
2018-11-25T11:48:45.410Z,101169.41
2018-11-25T11:51:13.961Z,101173.45
2018-11-25T11:53:42.197Z,101166.72
2018-11-25T11:56:10.406Z,101171.64
2018-11-25T11:58:38.620Z,101167.14
2018-11-25T12:01:07.390Z,101166.25
2018-11-25T12:03:36.646Z,101161.75
2018-11-25T12:06:05.053Z,101163.98
2018-11-25T12:08:33.306Z,101163.98
2018-11-25T12:11:01.569Z,101164.38
2018-11-25T12:13:29.898Z,101165.20
2018-11-25T12:15:58.274Z,101168.30
2018-11-25T12:18:26.552Z,101165.47
2018-11-25T12:20:54.850Z,101166.36
2018-11-25T12:23:23.405Z,101163.20
2018-11-25T12:25:51.974Z,101162.22
2018-11-25T12:28:20.220Z,101170.20
2018-11-25T12:30:48.853Z,101169.32
2018-11-25T12:33:17.100Z,101172.55
2018-11-25T12:38:14.941Z,101176.66
2018-11-25T12:40:44.384Z,101172.12
2018-11-25T12:43:12.709Z,101177.57
2018-11-25T12:45:40.918Z,101178.92
2018-11-25T12:48:10.014Z,101146.69
2018-11-25T12:50:38.218Z,101169.64
2018-11-25T12:53:06.556Z,101164.25
2018-11-25T12:55:34.802Z,101163.56
2018-11-25T12:58:03.122Z,101169.95
2018-11-25T13:00:39.722Z,101163.47
2018-11-25T13:03:08.970Z,101172.77
2018-11-25T13:05:37.681Z,101168.66
2018-11-25T13:08:06.218Z,101174.02
2018-11-25T13:10:34.421Z,101174.74
2018-11-25T13:13:02.637Z,101166.59
2018-11-25T13:15:30.862Z,101160.59
2018-11-25T13:17:59.405Z,101165.89
2018-11-25T13:20:27.650Z,101163.05
2018-11-25T13:22:55.964Z,101165.25
2018-11-25T13:25:24.258Z,101164.66
2018-11-25T13:27:52.566Z,101171.59
2018-11-25T13:30:21.670Z,101169.95
2018-11-25T13:32:50.399Z,101166.14
2018-11-25T13:35:18.811Z,101171.14
2018-11-25T13:37:47.269Z,101168.98
2018-11-25T13:40:15.881Z,101185.23
2018-11-25T13:42:44.329Z,101178.95
2018-11-25T13:45:12.797Z,101183.09
2018-11-25T13:47:41.158Z,101186.25
2018-11-25T13:50:09.911Z,101195.04
2018-11-25T13:52:42.910Z,101197.08
2018-11-25T13:55:14.845Z,101194.38
2018-11-25T13:57:47.201Z,101192.55
2018-11-25T14:00:19.630Z,101191.19
2018-11-25T14:02:47.874Z,101196.09
2018-11-25T14:05:16.346Z,101196.59
2018-11-25T14:07:44.533Z,101197.08
2018-11-25T14:10:34.401Z,101198.49
2018-11-25T14:13:03.577Z,101201.19
2018-11-25T14:15:31.886Z,101195.89
2018-11-25T14:18:00.410Z,101202.70
2018-11-25T14:20:30.957Z,101201.81
2018-11-25T14:22:59.741Z,101200.10
2018-11-25T14:25:28.558Z,101201.45
2018-11-25T14:28:01.186Z,101198.79
2018-11-25T14:30:30.017Z,101197.89
2018-11-25T14:33:00.717Z,101196.55
2018-11-25T14:35:29.544Z,101195.70
2018-11-25T14:37:58.015Z,101195.70
2018-11-25T14:40:26.369Z,101199.22
2018-11-25T14:42:54.647Z,101198.66
2018-11-25T14:45:23.774Z,101191.78
2018-11-25T14:47:54.251Z,101196.16
2018-11-25T14:50:22.465Z,101186.63
2018-11-25T14:52:51.236Z,101187.41
2018-11-25T14:55:19.838Z,101174.31
2018-11-25T14:57:48.816Z,101178.79
2018-11-25T15:00:20.273Z,101170.17
2018-11-25T15:02:55.337Z,101168.36
2018-11-25T15:05:42.593Z,101161.16
2018-11-25T15:08:11.578Z,101155.77
2018-11-25T15:10:39.878Z,101152.17
2018-11-25T15:13:08.498Z,101150.89
2018-11-25T15:15:37.213Z,101148.20
2018-11-25T15:18:05.602Z,101146.42
2018-11-25T15:20:33.991Z,101150.53
2018-11-25T15:23:03.069Z,101150.57
2018-11-25T15:25:32.208Z,101160.47
2018-11-25T15:28:00.405Z,101158.23
2018-11-25T15:30:28.647Z,101158.83
2018-11-25T15:32:56.890Z,101161.52
2018-11-25T15:35:25.196Z,101165.61
2018-11-25T15:37:53.832Z,101165.67
2018-11-25T15:40:22.982Z,101166.16
2018-11-25T15:42:54.191Z,101169.36
2018-11-25T15:45:22.441Z,101173.41
2018-11-25T15:47:54.883Z,101182.41
2018-11-25T15:50:24.070Z,101180.63
2018-11-25T15:52:52.308Z,101178.89
2018-11-25T15:55:20.706Z,101189.68
2018-11-25T15:57:49.263Z,101187.02
2018-11-25T16:00:21.218Z,101183.03
2018-11-25T16:02:50.537Z,101180.86
2018-11-25T16:05:23.613Z,101184.41
2018-11-25T16:08:01.224Z,101189.81
2018-11-25T16:10:32.132Z,101189.81
2018-11-25T16:13:00.782Z,101190.66
2018-11-25T16:15:29.187Z,101192.38
2018-11-25T16:17:57.783Z,101194.97
2018-11-25T16:20:26.894Z,101192.64
2018-11-25T16:22:55.832Z,101195.23
2018-11-25T16:25:46.329Z,101200.53
2018-11-25T16:28:23.817Z,101203.63
2018-11-25T16:30:52.830Z,101208.09
2018-11-25T16:33:23.985Z,101205.83
2018-11-25T16:35:52.296Z,101207.17
2018-11-25T16:38:28.341Z,101203.13
2018-11-25T16:40:56.608Z,101199.09
2018-11-25T16:43:24.805Z,101209.45
2018-11-25T16:45:53.288Z,101209.48
2018-11-25T16:48:21.542Z,101202.80
2018-11-25T16:50:49.766Z,101209.55
2018-11-25T16:53:17.996Z,101213.16
2018-11-25T16:55:46.241Z,101211.88
2018-11-25T16:58:14.525Z,101215.10
2018-11-25T17:00:42.736Z,101214.22
2018-11-25T17:03:11.227Z,101203.89
2018-11-25T17:05:40.531Z,101209.31
2018-11-25T17:08:11.216Z,101213.85
2018-11-25T17:10:44.861Z,101215.20
2018-11-25T17:13:27.144Z,101213.48
2018-11-25T17:15:56.389Z,101213.48
2018-11-25T17:19:02.781Z,101215.75
2018-11-25T17:21:21.833Z,101210.82
2018-11-25T17:23:50.134Z,101212.63
2018-11-25T17:26:18.333Z,101209.05
2018-11-25T17:28:46.585Z,101215.39
2018-11-25T17:31:14.897Z,101219.01
2018-11-25T17:33:46.182Z,101221.31
2018-11-25T17:36:14.860Z,101227.63
2018-11-25T17:41:47.673Z,101226.27
2018-11-25T17:44:15.966Z,101218.19
2018-11-25T17:46:44.257Z,101221.67
2018-11-25T17:49:12.822Z,101226.91
2018-11-25T17:51:41.526Z,101232.14
2018-11-25T17:54:09.973Z,101232.93
2018-11-25T17:56:38.869Z,101235.98
2018-11-25T17:59:07.426Z,101238.20
2018-11-25T18:04:44.980Z,101250.27
2018-11-25T18:07:13.186Z,101244.67
2018-11-25T18:09:41.735Z,101240.73
2018-11-25T18:12:09.988Z,101241.65
2018-11-25T18:14:38.671Z,101243.98
2018-11-25T18:17:07.149Z,101248.13
2018-11-25T18:19:35.381Z,101249.94
2018-11-25T18:22:11.834Z,101247.30
2018-11-25T18:24:40.147Z,101246.87
2018-11-25T18:27:08.629Z,101250.89
2018-11-25T18:29:37.358Z,101255.39
2018-11-25T18:32:06.251Z,101254.47
2018-11-25T18:34:34.472Z,101262.56
2018-11-25T18:37:02.726Z,101270.66
2018-11-25T18:39:30.939Z,101268.16
2018-11-25T18:41:59.379Z,101272.30
2018-11-25T18:44:33.394Z,101267.88
2018-11-25T18:47:02.178Z,101268.86
2018-11-25T18:49:30.915Z,101269.35
2018-11-25T18:52:05.077Z,101266.27
2018-11-25T18:54:28.270Z,101264.45
2018-11-25T18:56:56.578Z,101268.95
2018-11-25T18:59:25.153Z,101280.63
2018-11-25T19:02:00.650Z,101274.37
2018-11-25T19:04:29.829Z,101268.59
2018-11-25T19:06:58.313Z,101276.19
2018-11-25T19:09:26.972Z,101278.88
2018-11-25T19:11:55.294Z,101277.14
2018-11-25T19:14:23.532Z,101278.85
2018-11-25T19:16:51.899Z,101281.91
2018-11-25T19:19:20.624Z,101284.09
2018-11-25T19:21:49.190Z,101285.80
2018-11-25T19:24:17.655Z,101283.91
2018-11-25T19:26:46.303Z,101287.79
2018-11-25T19:29:15.290Z,101281.91
2018-11-25T19:31:43.856Z,101280.09
2018-11-25T19:34:12.694Z,101282.73
2018-11-25T19:36:41.404Z,101285.80
2018-11-25T19:39:11.659Z,101287.66
2018-11-25T19:41:40.513Z,101287.66
2018-11-25T19:44:09.057Z,101286.34
2018-11-25T19:46:37.582Z,101285.40
2018-11-25T19:49:06.422Z,101287.30
2018-11-25T19:51:34.964Z,101280.49
2018-11-25T19:54:03.737Z,101281.98
2018-11-25T19:56:32.280Z,101286.23
2018-11-25T19:59:01.160Z,101290.64
2018-11-25T20:01:30.214Z,101287.84
2018-11-25T20:03:58.761Z,101286.44
2018-11-25T20:06:27.359Z,101284.92
2018-11-25T20:08:55.911Z,101285.78
2018-11-25T20:11:24.610Z,101284.00
2018-11-25T20:13:53.149Z,101282.19
2018-11-25T20:16:39.186Z,101284.89
2018-11-25T20:19:07.842Z,101285.34
2018-11-25T20:21:53.464Z,101283.54
2018-11-25T20:24:21.859Z,101284.45
2018-11-25T20:27:07.387Z,101287.22
2018-11-25T20:29:36.518Z,101286.33
2018-11-25T20:32:22.077Z,101285.91
2018-11-25T20:34:50.564Z,101287.75
2018-11-25T20:37:26.735Z,101294.50
2018-11-25T20:39:50.215Z,101289.95
2018-11-25T20:42:18.435Z,101293.61
2018-11-25T20:44:46.775Z,101303.41
2018-11-25T20:47:15.327Z,101301.64
2018-11-25T20:49:43.738Z,101303.61
2018-11-25T20:52:29.448Z,101309.00
2018-11-25T20:54:57.707Z,101303.81
2018-11-25T20:57:25.941Z,101306.91
2018-11-25T20:59:54.233Z,101308.34
2018-11-25T21:02:28.926Z,101303.20
2018-11-25T21:04:51.704Z,101306.69
2018-11-25T21:07:20.244Z,101302.73
2018-11-25T21:09:48.849Z,101308.52
2018-11-25T21:12:17.148Z,101311.16
2018-11-25T21:14:45.730Z,101306.28
2018-11-25T21:17:14.059Z,101306.21
2018-11-25T21:19:42.287Z,101304.47
2018-11-25T21:22:10.588Z,101307.56
2018-11-25T21:24:38.985Z,101313.78
2018-11-25T21:27:07.245Z,101314.28
2018-11-25T21:29:35.538Z,101316.02
2018-11-25T21:32:03.999Z,101313.78
2018-11-25T21:34:32.360Z,101311.51
2018-11-25T21:37:00.883Z,101312.93
2018-11-25T21:39:29.532Z,101302.13
2018-11-25T21:41:58.525Z,101301.23
2018-11-25T21:44:26.838Z,101299.46
2018-11-25T21:46:55.112Z,101308.98
2018-11-25T21:49:23.974Z,101299.17
2018-11-25T21:51:52.269Z,101300.55
2018-11-25T21:54:20.542Z,101299.66
2018-11-25T21:56:49.022Z,101302.01
2018-11-25T21:59:17.281Z,101289.21
2018-11-25T22:01:45.565Z,101299.31
2018-11-25T22:04:15.013Z,101292.20
2018-11-25T22:06:43.211Z,101301.65
2018-11-25T22:09:11.903Z,101302.11
2018-11-25T22:11:40.150Z,101301.65
2018-11-25T22:14:08.383Z,101304.35
2018-11-25T22:16:36.940Z,101312.45
2018-11-25T22:19:06.038Z,101310.18
2018-11-25T22:21:34.578Z,101315.98
2018-11-25T22:24:02.793Z,101304.80
2018-11-25T22:26:31.264Z,101311.70
2018-11-25T22:28:59.573Z,101308.17
2018-11-25T22:31:28.121Z,101308.74
2018-11-25T22:33:56.869Z,101301.81
2018-11-25T22:36:25.186Z,101302.45
2018-11-25T22:38:53.469Z,101293.99
2018-11-25T22:41:21.778Z,101295.88
2018-11-25T22:43:49.997Z,101299.92
2018-11-25T22:46:18.222Z,101305.08
2018-11-25T22:48:46.761Z,101313.28
2018-11-25T22:51:15.010Z,101307.39
2018-11-25T22:53:43.262Z,101310.63
2018-11-25T22:56:11.469Z,101308.92
2018-11-25T22:58:39.718Z,101309.31
2018-11-25T23:01:07.925Z,101307.18
2018-11-25T23:03:36.184Z,101312.33
2018-11-25T23:06:22.171Z,101308.28
2018-11-25T23:08:50.854Z,101312.44
2018-11-25T23:11:19.064Z,101310.48
2018-11-25T23:13:47.269Z,101312.25
2018-11-25T23:16:15.518Z,101313.80
2018-11-25T23:18:43.728Z,101314.86
2018-11-25T23:21:12.190Z,101313.11
2018-11-25T23:23:40.424Z,101315.98
2018-11-25T23:26:08.960Z,101323.19
2018-11-25T23:28:37.448Z,101324.15
2018-11-25T23:31:06.111Z,101317.96
2018-11-25T23:33:34.698Z,101318.00
2018-11-25T23:36:02.938Z,101318.95
2018-11-25T23:38:31.381Z,101318.63
2018-11-25T23:41:00.090Z,101322.30
2018-11-25T23:43:28.405Z,101319.67
2018-11-25T23:45:56.617Z,101320.59
2018-11-25T23:48:25.093Z,101321.13
2018-11-25T23:50:53.307Z,101324.31
2018-11-25T23:53:21.537Z,101328.86
2018-11-25T23:55:49.857Z,101328.89
2018-11-25T23:58:18.309Z,101320.00
